TAF KORH
KORH 072321Z 0800/0824 28004KT P6SM BKN250 FM080800 00000KT P6SM OVC100 FM081300 08003KT P6SM OVC050 FM081600 10004KT P6SM VCSH OVC045 FM082000 08004KT P6SM VCSH OVC020 FM082200 05005KT 3SM -SHSN OVC015=
METAR KORH
WC KORH
WS KORH
WV KORH